createdAt,value
2018-07-04T00:00:48.249Z,3.20
2018-07-04T00:03:35.117Z,3.03
2018-07-04T00:06:21.921Z,3.90
2018-07-04T00:09:08.668Z,3.80
2018-07-04T00:11:55.436Z,3.63
2018-07-04T00:14:42.212Z,3.07
2018-07-04T00:17:29.001Z,3.63
2018-07-04T00:20:16.029Z,3.80
2018-07-04T00:23:02.746Z,3.73
2018-07-04T00:25:49.597Z,3.40
2018-07-04T00:28:36.368Z,3.40
2018-07-04T00:31:23.213Z,3.83
2018-07-04T00:34:09.965Z,3.80
2018-07-04T00:36:56.861Z,3.93
2018-07-04T00:39:43.616Z,3.63
2018-07-04T00:42:30.396Z,4.03
2018-07-04T00:45:17.118Z,4.00
2018-07-04T00:48:04.044Z,4.50
2018-07-04T00:50:50.769Z,4.17
2018-07-04T00:53:37.633Z,4.30
2018-07-04T00:56:24.357Z,3.27
2018-07-04T00:59:11.149Z,3.90
2018-07-04T01:01:58.032Z,4.93
2018-07-04T01:04:44.792Z,4.57
2018-07-04T01:07:31.472Z,3.97
2018-07-04T01:10:18.269Z,3.67
2018-07-04T01:13:04.999Z,4.30
2018-07-04T01:15:51.855Z,4.57
2018-07-04T01:18:38.815Z,3.90
2018-07-04T01:21:25.524Z,3.23
2018-07-04T01:24:12.400Z,3.70
2018-07-04T01:26:59.207Z,4.70
2018-07-04T01:29:46.023Z,3.63
2018-07-04T01:32:32.927Z,4.30
2018-07-04T01:35:19.764Z,4.63
2018-07-04T01:38:06.724Z,4.40
2018-07-04T01:40:53.422Z,4.20
2018-07-04T01:43:40.344Z,4.20
2018-07-04T01:46:27.082Z,5.10
2018-07-04T01:49:13.781Z,4.60
2018-07-04T01:52:00.672Z,5.63
2018-07-04T01:54:47.449Z,5.53
2018-07-04T01:57:34.191Z,5.30
2018-07-04T02:00:20.912Z,5.10
2018-07-04T02:03:07.748Z,5.07
2018-07-04T02:05:54.493Z,5.30
2018-07-04T02:08:41.220Z,5.40
2018-07-04T02:11:28.044Z,5.40
2018-07-04T02:14:14.765Z,4.93
2018-07-04T02:17:01.586Z,5.30
2018-07-04T02:19:48.357Z,6.20
2018-07-04T02:22:35.072Z,6.03
2018-07-04T02:25:21.698Z,5.47
2018-07-04T02:28:09.829Z,5.50
2018-07-04T02:30:56.565Z,5.40
2018-07-04T02:33:43.469Z,5.90
2018-07-04T02:36:30.297Z,5.90
2018-07-04T02:39:17.139Z,6.30
2018-07-04T02:42:03.980Z,6.27
2018-07-04T02:44:50.740Z,6.10
2018-07-04T02:47:37.500Z,7.30
2018-07-04T02:50:24.366Z,5.80
2018-07-04T02:53:11.289Z,6.90
2018-07-04T02:55:58.144Z,6.13
2018-07-04T02:58:44.992Z,5.50
2018-07-04T03:01:31.807Z,5.23
2018-07-04T03:04:18.543Z,5.87
2018-07-04T03:07:05.352Z,5.90
2018-07-04T03:09:51.980Z,6.47
2018-07-04T03:12:38.852Z,7.37
2018-07-04T03:15:25.785Z,6.90
2018-07-04T03:18:12.642Z,6.63
2018-07-04T03:20:59.330Z,6.13
2018-07-04T03:23:46.235Z,6.00
2018-07-04T03:26:33.143Z,6.37
2018-07-04T03:29:19.904Z,7.90
2018-07-04T03:32:06.744Z,6.50
2018-07-04T03:34:53.538Z,6.43
2018-07-04T03:37:40.234Z,6.23
2018-07-04T03:40:26.892Z,6.20
2018-07-04T03:43:13.779Z,6.73
2018-07-04T03:46:00.554Z,6.47
2018-07-04T03:48:47.404Z,6.80
2018-07-04T03:51:34.042Z,6.50
2018-07-04T03:54:20.726Z,7.17
2018-07-04T03:57:07.623Z,6.60
2018-07-04T03:59:54.152Z,6.00
2018-07-04T04:02:40.857Z,5.70
2018-07-04T04:05:27.786Z,5.80
2018-07-04T04:08:14.527Z,6.07
2018-07-04T04:11:01.040Z,6.93
2018-07-04T04:13:47.856Z,6.80
2018-07-04T04:16:34.506Z,8.77
2018-07-04T04:19:25.381Z,7.73
2018-07-04T04:22:12.584Z,5.30
2018-07-04T04:24:59.419Z,5.37
2018-07-04T04:27:46.156Z,4.93
2018-07-04T04:30:32.936Z,5.80
2018-07-04T04:33:19.661Z,5.37
2018-07-04T04:36:06.412Z,4.60
2018-07-04T04:38:53.184Z,5.30
2018-07-04T04:41:39.976Z,8.23
2018-07-04T04:44:26.910Z,5.30
2018-07-04T04:47:13.615Z,3.77
2018-07-04T04:50:00.305Z,4.30
2018-07-04T04:52:47.116Z,4.37
2018-07-04T04:55:33.998Z,4.43
2018-07-04T04:58:20.731Z,4.00
2018-07-04T05:01:07.483Z,4.47
2018-07-04T05:03:54.333Z,4.13
2018-07-04T05:06:41.227Z,4.80
2018-07-04T05:09:28.096Z,5.07
2018-07-04T05:12:14.881Z,4.90
2018-07-04T05:15:01.689Z,5.50
2018-07-04T05:17:48.352Z,4.70
2018-07-04T05:20:35.220Z,6.07
2018-07-04T05:23:21.900Z,5.60
2018-07-04T05:26:08.761Z,5.07
2018-07-04T05:28:55.500Z,4.90
2018-07-04T05:31:42.399Z,5.57
2018-07-04T05:34:29.261Z,4.63
2018-07-04T05:37:16.100Z,5.57
2018-07-04T05:40:02.899Z,5.20
2018-07-04T05:42:49.710Z,12.10
2018-07-04T05:45:37.073Z,34.00
2018-07-04T05:48:23.846Z,5.60
2018-07-04T05:51:10.713Z,5.00
2018-07-04T05:53:57.613Z,6.37
2018-07-04T05:56:44.460Z,5.83
2018-07-04T05:59:31.169Z,6.00
2018-07-04T06:02:17.820Z,5.30
2018-07-04T06:05:04.495Z,5.20
2018-07-04T06:07:51.259Z,5.50
2018-07-04T06:10:38.012Z,5.73
2018-07-04T06:13:24.869Z,7.83
2018-07-04T06:16:11.793Z,9.13
2018-07-04T06:18:58.830Z,10.10
2018-07-04T06:21:45.781Z,10.33
2018-07-04T06:24:32.507Z,9.60
2018-07-04T06:27:19.402Z,9.33
2018-07-04T06:30:06.053Z,10.10
2018-07-04T06:32:52.941Z,10.70
2018-07-04T06:35:39.679Z,10.30
2018-07-04T06:38:14.114Z,10.40
2018-07-04T06:40:42.525Z,8.80
2018-07-04T06:43:10.915Z,9.33
2018-07-04T06:45:39.335Z,9.23
2018-07-04T06:48:07.747Z,9.13
2018-07-04T06:50:36.164Z,9.50
2018-07-04T06:53:04.588Z,10.33
2018-07-04T06:55:33.013Z,11.20
2018-07-04T06:58:01.426Z,11.93
2018-07-04T07:00:29.828Z,11.80
2018-07-04T07:03:10.495Z,10.97
2018-07-04T07:05:57.273Z,11.30
2018-07-04T07:08:43.980Z,11.47
2018-07-04T07:11:30.754Z,10.70
2018-07-04T07:14:17.619Z,10.57
2018-07-04T07:17:04.300Z,11.70
2018-07-04T07:19:51.029Z,10.80
2018-07-04T07:22:37.784Z,11.97
2018-07-04T07:25:24.532Z,12.20
2018-07-04T07:28:12.001Z,10.50
2018-07-04T07:30:58.771Z,9.80
2018-07-04T07:33:45.576Z,9.80
2018-07-04T07:36:32.330Z,10.33
2018-07-04T07:39:19.113Z,10.20
2018-07-04T07:42:06.243Z,10.20
2018-07-04T07:44:52.862Z,9.70
2018-07-04T07:47:39.757Z,11.10
2018-07-04T07:50:26.671Z,9.93
2018-07-04T07:53:13.451Z,10.20
2018-07-04T07:56:00.118Z,10.93
2018-07-04T07:58:46.908Z,9.67
2018-07-04T08:01:33.688Z,10.50
2018-07-04T08:04:20.477Z,9.53
2018-07-04T08:07:07.250Z,10.20
2018-07-04T08:09:54.019Z,9.53
2018-07-04T08:12:40.821Z,8.03
2018-07-04T08:15:27.552Z,9.47
2018-07-04T08:18:14.356Z,8.57
2018-07-04T08:21:01.136Z,9.07
2018-07-04T08:23:47.862Z,9.43
2018-07-04T08:26:34.677Z,10.33
2018-07-04T08:29:21.420Z,8.57
2018-07-04T08:32:08.196Z,8.53
2018-07-04T08:34:54.963Z,7.40
2018-07-04T08:37:41.792Z,7.30
2018-07-04T08:40:28.542Z,7.50
2018-07-04T08:43:15.429Z,9.70
2018-07-04T08:46:02.137Z,10.17
2018-07-04T08:48:49.048Z,8.97
2018-07-04T08:51:35.932Z,7.23
2018-07-04T08:54:22.776Z,9.37
2018-07-04T08:57:09.546Z,8.03
2018-07-04T08:59:56.340Z,8.13
2018-07-04T09:02:43.052Z,8.53
2018-07-04T09:05:29.812Z,8.20
2018-07-04T09:08:16.631Z,6.30
2018-07-04T09:11:03.351Z,7.27
2018-07-04T09:13:50.214Z,6.77
2018-07-04T09:16:37.004Z,6.20
2018-07-04T09:19:23.968Z,5.93
2018-07-04T10:19:07.217Z,5.23
2018-07-04T10:21:59.797Z,4.70
2018-07-04T10:24:52.602Z,5.20
2018-07-04T10:27:39.638Z,4.43
2018-07-04T10:30:20.951Z,5.10
2018-07-04T10:33:07.801Z,4.57
2018-07-04T10:35:55.312Z,5.10
2018-07-04T10:38:42.468Z,5.13
2018-07-04T10:41:29.645Z,5.10
2018-07-04T10:44:16.725Z,5.10
2018-07-04T10:47:03.765Z,4.77
2018-07-04T10:49:50.764Z,4.60
2018-07-04T10:52:37.528Z,4.60
2018-07-04T10:55:25.533Z,4.73
2018-07-04T10:58:12.609Z,4.33
2018-07-04T11:00:53.612Z,5.00
2018-07-04T11:03:40.429Z,9.70
2018-07-04T11:06:27.605Z,5.27
2018-07-04T11:09:15.281Z,4.93
2018-07-04T11:12:02.505Z,4.60
2018-07-04T11:14:49.570Z,4.40
2018-07-04T11:17:36.592Z,4.80
2018-07-04T11:20:24.343Z,4.40
2018-07-04T11:23:05.346Z,4.70
2018-07-04T11:25:52.379Z,4.77
2018-07-04T11:28:39.516Z,3.90
2018-07-04T11:31:26.547Z,4.80
2018-07-04T11:34:14.334Z,4.43
2018-07-04T11:37:01.450Z,4.60
2018-07-04T11:39:49.181Z,5.00
2018-07-04T11:42:36.278Z,5.03
2018-07-04T11:45:23.372Z,4.73
2018-07-04T11:47:57.906Z,4.93
2018-07-04T11:50:26.308Z,4.77
2018-07-04T11:52:54.997Z,5.17
2018-07-04T11:55:23.231Z,4.77
2018-07-04T11:57:51.665Z,5.03
2018-07-04T12:00:20.113Z,5.40
2018-07-04T12:02:48.592Z,4.37
2018-07-04T12:05:29.509Z,4.13
2018-07-04T12:08:04.329Z,4.73
2018-07-04T12:10:32.747Z,5.10
2018-07-04T12:13:02.096Z,4.70
2018-07-04T12:15:30.380Z,4.90
2018-07-04T12:17:58.837Z,4.33
2018-07-04T12:20:27.324Z,5.07
2018-07-04T12:22:56.679Z,5.00
2018-07-04T12:25:25.139Z,4.90
2018-07-04T12:27:53.532Z,5.10
2018-07-04T12:30:21.946Z,5.60
2018-07-04T12:32:50.339Z,6.30
2018-07-04T12:35:18.988Z,5.17
2018-07-04T12:37:47.428Z,5.47
2018-07-04T12:40:15.868Z,5.10
2018-07-04T12:42:44.400Z,5.10
2018-07-04T12:45:12.828Z,4.17
2018-07-04T12:47:41.228Z,3.83
2018-07-04T12:50:22.413Z,3.43
2018-07-04T12:52:51.769Z,3.43
2018-07-04T12:55:38.065Z,4.30
2018-07-04T12:58:25.090Z,3.53
2018-07-04T13:01:12.707Z,4.23
2018-07-04T13:03:59.797Z,4.00
2018-07-04T13:06:47.198Z,3.37
2018-07-04T13:09:34.438Z,3.30
2018-07-04T13:12:22.261Z,2.80
2018-07-04T13:15:09.172Z,3.27
2018-07-04T13:17:56.852Z,3.13
2018-07-04T13:20:43.899Z,3.50
2018-07-04T13:23:32.190Z,3.10
2018-07-04T13:26:19.140Z,2.80
2018-07-04T13:29:06.346Z,3.00
2018-07-04T13:31:53.447Z,2.73
2018-07-04T13:34:40.438Z,2.83
2018-07-04T13:37:27.452Z,3.00
2018-07-04T13:40:14.549Z,2.77
2018-07-04T13:43:01.750Z,2.83
2018-07-04T13:45:48.909Z,2.63
2018-07-04T13:48:36.055Z,3.17
2018-07-04T13:51:23.174Z,5.10
2018-07-04T13:54:10.211Z,3.30
2018-07-04T13:56:57.281Z,3.00
2018-07-04T13:59:44.724Z,3.63
2018-07-04T14:02:31.990Z,3.90
2018-07-04T14:05:18.757Z,3.07
2018-07-04T14:08:08.056Z,3.03
2018-07-04T14:10:55.926Z,3.30
2018-07-04T14:13:43.753Z,3.50
2018-07-04T14:16:31.533Z,3.60
2018-07-04T14:19:18.684Z,3.00
2018-07-04T14:22:06.026Z,3.80
2018-07-04T14:24:52.938Z,3.20
2018-07-04T14:27:39.916Z,3.17
2018-07-04T14:30:20.908Z,3.57
2018-07-04T14:33:07.907Z,3.20
2018-07-04T14:35:54.750Z,3.50
2018-07-04T14:38:41.837Z,3.57
2018-07-04T14:41:29.325Z,3.33
2018-07-04T14:44:10.148Z,3.10
2018-07-04T14:46:56.848Z,3.17
2018-07-04T14:49:43.901Z,2.87
2018-07-04T14:52:24.864Z,3.20
2018-07-04T14:55:11.492Z,3.60
2018-07-04T14:57:58.671Z,3.93
2018-07-04T15:00:45.673Z,3.70
2018-07-04T15:03:32.729Z,3.60
2018-07-04T15:06:20.064Z,3.77
2018-07-04T15:09:07.089Z,3.33
2018-07-04T15:11:54.863Z,3.40
2018-07-04T15:14:41.884Z,2.80
2018-07-04T15:17:24.481Z,3.77
2018-07-04T15:20:11.145Z,3.07
2018-07-04T15:22:58.014Z,3.50
2018-07-04T15:25:45.200Z,3.47
2018-07-04T15:45:50.789Z,4.00
2018-07-04T15:48:31.669Z,3.67
2018-07-04T15:51:18.667Z,3.37
2018-07-04T15:54:06.510Z,3.70
2018-07-04T15:56:53.411Z,3.40
2018-07-04T15:59:40.539Z,4.67
2018-07-04T16:02:27.841Z,7.53
2018-07-04T16:05:14.979Z,4.60
2018-07-04T16:08:02.097Z,3.83
2018-07-04T16:10:43.092Z,4.37
2018-07-04T16:13:30.053Z,4.57
2018-07-04T16:16:17.881Z,4.33
2018-07-04T16:19:05.065Z,4.67
2018-07-04T16:21:52.123Z,4.30
2018-07-04T16:24:39.281Z,4.80
2018-07-04T16:27:26.365Z,4.40
2018-07-04T16:30:13.793Z,4.57
2018-07-04T16:33:01.040Z,5.60
2018-07-04T16:35:48.441Z,4.63
2018-07-04T16:38:35.381Z,4.17
2018-07-04T16:41:22.318Z,4.60
2018-07-04T16:44:09.205Z,4.30
2018-07-04T16:46:56.241Z,5.17
2018-07-04T16:49:37.239Z,5.00
2018-07-04T16:52:24.175Z,4.90
2018-07-04T16:55:05.159Z,5.40
2018-07-04T16:57:52.863Z,9.27
2018-07-04T17:00:39.724Z,5.63
2018-07-04T17:03:26.770Z,5.10
2018-07-04T17:06:13.833Z,5.33
2018-07-04T17:09:00.792Z,5.50
2018-07-04T17:11:47.873Z,7.00
2018-07-04T17:14:35.571Z,5.90
2018-07-04T17:17:22.478Z,6.30
2018-07-04T17:20:09.481Z,5.67
2018-07-04T17:22:56.486Z,6.17
2018-07-04T17:25:37.505Z,5.83
2018-07-04T17:28:24.574Z,7.03
2018-07-04T17:31:11.622Z,8.70
2018-07-04T17:33:58.565Z,5.87
2018-07-04T17:36:45.571Z,5.50
2018-07-04T17:39:32.605Z,6.10
2018-07-04T17:42:19.690Z,6.80
2018-07-04T17:45:06.766Z,6.43
2018-07-04T17:47:53.807Z,6.87
2018-07-04T17:50:40.844Z,6.47
2018-07-04T17:53:27.951Z,9.00
2018-07-04T17:56:14.961Z,10.90
2018-07-04T17:59:02.165Z,7.20
2018-07-04T18:01:49.324Z,6.47
2018-07-04T18:04:36.368Z,6.20
2018-07-04T18:07:23.443Z,6.33
2018-07-04T18:10:10.622Z,16.63
2018-07-04T18:12:57.546Z,6.67
2018-07-04T18:15:44.721Z,7.60
2018-07-04T18:18:31.759Z,10.30
2018-07-04T18:21:25.208Z,6.63
2018-07-04T18:24:12.257Z,7.23
2018-07-04T18:26:59.132Z,6.30
2018-07-04T18:29:46.131Z,6.37
2018-07-04T18:32:33.335Z,7.40
2018-07-04T18:35:20.441Z,6.73
2018-07-04T18:38:07.361Z,6.70
2018-07-04T18:40:54.408Z,6.20
2018-07-04T18:43:35.387Z,6.70
2018-07-04T18:46:22.462Z,6.90
2018-07-04T18:49:08.403Z,6.43
2018-07-04T18:51:57.948Z,6.37
2018-07-04T18:54:39.821Z,7.20
2018-07-04T18:57:26.517Z,7.43
2018-07-04T19:00:13.649Z,7.63
2018-07-04T19:03:00.694Z,6.83
2018-07-04T19:05:48.478Z,6.90
2018-07-04T19:08:35.540Z,6.53
2018-07-04T19:11:22.608Z,7.40
2018-07-04T19:14:09.681Z,6.53
2018-07-04T19:16:57.781Z,6.70
2018-07-04T19:19:44.883Z,7.17
2018-07-04T19:22:32.037Z,7.27
2018-07-04T19:25:19.180Z,6.80
2018-07-04T19:28:06.479Z,6.90
2018-07-04T19:30:53.557Z,6.70
2018-07-04T19:33:40.699Z,7.43
2018-07-04T19:36:27.834Z,8.10
2018-07-04T19:39:14.847Z,7.30
2018-07-04T19:42:02.071Z,7.27
2018-07-04T19:44:49.023Z,7.50
2018-07-04T19:47:36.269Z,7.83
2018-07-04T19:50:23.276Z,7.77
2018-07-04T19:53:10.366Z,6.27
2018-07-04T19:55:57.401Z,7.43
2018-07-04T19:58:44.394Z,7.53
2018-07-04T20:01:31.350Z,11.57
2018-07-04T20:04:18.506Z,12.60
2018-07-04T20:07:05.501Z,8.03
2018-07-04T20:09:52.541Z,7.87
2018-07-04T20:12:39.645Z,7.43
2018-07-04T20:15:26.775Z,8.07
2018-07-04T20:18:13.645Z,8.10
2018-07-04T20:21:00.803Z,8.47
2018-07-04T20:23:47.938Z,11.33
2018-07-04T20:26:35.002Z,9.13
2018-07-04T20:29:22.077Z,9.20
2018-07-04T20:32:09.171Z,8.70
2018-07-04T20:34:50.344Z,8.27
2018-07-04T20:37:36.923Z,8.07
2018-07-04T20:40:23.772Z,7.77
2018-07-04T20:43:10.902Z,7.83
2018-07-04T20:45:57.994Z,8.33
2018-07-04T20:48:45.044Z,8.60
2018-07-04T20:51:32.074Z,7.90
2018-07-04T20:54:19.504Z,7.53
2018-07-04T20:57:06.747Z,8.33
2018-07-04T20:59:53.810Z,8.20
2018-07-04T21:02:40.916Z,8.93
2018-07-04T21:05:28.597Z,8.37
2018-07-04T21:08:15.688Z,8.43
2018-07-04T21:11:02.676Z,7.80
2018-07-04T21:13:49.565Z,7.70
2018-07-04T21:16:36.772Z,9.13
2018-07-04T21:19:23.568Z,8.77
2018-07-04T21:22:10.833Z,9.20
2018-07-04T21:24:57.961Z,9.20
2018-07-04T21:27:39.443Z,9.80
2018-07-04T21:30:26.140Z,9.10
2018-07-04T21:33:13.200Z,10.30
2018-07-04T21:36:00.349Z,10.13
2018-07-04T21:38:47.322Z,10.73
2018-07-04T21:41:34.445Z,10.23
2018-07-04T21:44:21.900Z,9.47
2018-07-04T21:47:09.157Z,9.23
2018-07-04T21:49:56.236Z,9.50
2018-07-04T21:52:43.561Z,10.40
2018-07-04T21:55:30.667Z,9.40
2018-07-04T21:58:17.880Z,9.23
2018-07-04T22:01:05.488Z,10.67
2018-07-04T22:03:52.652Z,10.13
2018-07-04T22:06:39.869Z,10.90
2018-07-04T22:09:26.904Z,10.37
2018-07-04T22:12:13.889Z,10.77
2018-07-04T22:15:01.276Z,9.87
2018-07-04T22:17:48.336Z,11.00
2018-07-04T22:20:35.341Z,10.43
2018-07-04T22:23:22.382Z,10.50
2018-07-04T22:26:09.403Z,9.40
2018-07-04T22:28:56.361Z,9.90
2018-07-04T22:31:43.455Z,10.47
2018-07-04T22:34:30.517Z,10.97
2018-07-04T22:37:17.662Z,11.00
2018-07-04T22:40:05.164Z,10.00
2018-07-04T22:42:46.241Z,9.60
2018-07-04T22:45:33.170Z,10.63
2018-07-04T22:48:20.229Z,10.53
2018-07-04T22:51:07.333Z,10.87
2018-07-04T22:53:54.641Z,10.70
2018-07-04T22:56:41.879Z,10.50
2018-07-04T22:59:28.900Z,10.00
2018-07-04T23:02:15.822Z,10.57
2018-07-04T23:05:02.788Z,10.90
2018-07-04T23:07:51.050Z,10.70
2018-07-04T23:10:37.950Z,12.57
2018-07-04T23:13:25.029Z,8.97
2018-07-04T23:16:12.019Z,10.07
2018-07-04T23:18:59.130Z,10.10
2018-07-04T23:21:46.057Z,11.30
2018-07-04T23:24:33.337Z,11.20
2018-07-04T23:27:20.264Z,11.90
2018-07-04T23:30:07.197Z,11.63
2018-07-04T23:32:54.184Z,13.30
2018-07-04T23:35:41.937Z,12.13
2018-07-04T23:38:29.129Z,11.37
2018-07-04T23:41:16.180Z,11.70
2018-07-04T23:44:03.436Z,11.40
2018-07-04T23:46:50.460Z,12.00
2018-07-04T23:49:44.547Z,12.10
2018-07-04T23:52:31.646Z,13.63
2018-07-04T23:55:18.891Z,12.40
2018-07-04T23:57:59.821Z,13.17
